Time;durP1;ratioP1;P1;durP2;ratioP2;P2;SDS_P1;SDS_P2;PMS_P1;PMS_P2;Temp;Humidity;BMP_temperature;BMP_pressure;BME280_temperature;BME280_humidity;BME280_pressure;Samples;Min_cycle;Max_cycle;Signal;HPM_P1;HPM_P2
2021/05/27 00:02:00;;;;;;;15.85;10.98;;;;;;;11.80;86.21;94536.08;1760567;80;20948;-65
2021/05/27 00:04:26;;;;;;;22.52;11.97;;;;;;;11.84;86.21;94531.77;1762645;80;20981;-63
2021/05/27 00:06:53;;;;;;;13.83;10.65;;;;;;;11.82;85.76;94524.58;1767095;80;20920;-64
2021/05/27 00:09:19;;;;;;;17.25;10.03;;;;;;;11.76;85.55;94529.95;1771091;80;21007;-65
2021/05/27 00:11:47;;;;;;;17.17;11.18;;;;;;;11.70;85.47;94529.02;1753170;80;21104;-64
2021/05/27 00:14:15;;;;;;;11.68;9.65;;;;;;;11.66;85.41;94525.66;1761191;80;21023;-66
2021/05/27 00:16:42;;;;;;;15.63;11.25;;;;;;;11.66;85.34;94519.37;1755519;80;21072;-65
2021/05/27 00:19:09;;;;;;;23.70;12.18;;;;;;;11.64;85.39;94519.84;1759286;80;21487;-63
2021/05/27 00:21:35;;;;;;;22.67;13.18;;;;;;;11.60;85.38;94515.70;1760071;80;21873;-63
2021/05/27 00:24:05;;;;;;;22.05;13.58;;;;;;;11.55;85.53;94511.53;1745263;80;21614;-65
2021/05/27 00:26:31;;;;;;;23.85;13.45;;;;;;;11.52;85.71;94500.05;1753521;80;20981;-64
2021/05/27 00:28:59;;;;;;;21.07;12.63;;;;;;;11.51;85.91;94498.52;1757337;80;20973;-65
2021/05/27 00:31:25;;;;;;;19.15;13.62;;;;;;;11.53;86.09;94507.72;1751903;80;20965;-65
2021/05/27 00:33:52;;;;;;;28.45;15.25;;;;;;;11.48;86.21;94509.09;1755577;80;22250;-64
2021/05/27 00:36:19;;;;;;;25.92;15.25;;;;;;;11.47;86.49;94524.09;1746625;80;21617;-64
2021/05/27 00:38:46;;;;;;;22.75;11.93;;;;;;;11.50;86.85;94530.05;1753032;80;21503;-66
2021/05/27 00:41:13;;;;;;;18.90;10.58;;;;;;;11.54;86.83;94539.55;1750822;80;21055;-65
2021/05/27 00:43:39;;;;;;;17.40;12.63;;;;;;;11.55;86.71;94528.06;1764306;80;21007;-65
2021/05/27 00:46:06;;;;;;;20.23;12.30;;;;;;;11.56;86.87;94531.00;1770048;80;21093;-64
2021/05/27 00:51:19;;;;;;;16.65;10.65;;;;;;;11.61;86.72;94520.77;1774999;80;20964;-64
2021/05/27 00:53:46;;;;;;;11.68;9.33;;;;;;;11.60;86.68;94524.74;1767487;80;21008;-64
2021/05/27 00:56:13;;;;;;;14.47;9.95;;;;;;;11.58;86.67;94523.66;1765729;80;20932;-64
2021/05/27 00:58:42;;;;;;;12.88;9.65;;;;;;;11.56;86.76;94519.97;1767366;80;21228;-65
2021/05/27 01:01:09;;;;;;;13.13;10.25;;;;;;;11.58;86.88;94520.31;1717956;80;20976;-63
2021/05/27 01:03:36;;;;;;;15.03;9.78;;;;;;;11.62;86.83;94516.78;1743106;80;21055;-64
2021/05/27 01:06:02;;;;;;;11.78;9.38;;;;;;;11.69;86.48;94506.82;1768546;80;21049;-64
2021/05/27 01:08:30;;;;;;;15.05;11.10;;;;;;;11.74;86.09;94515.09;1772829;80;21482;-64
2021/05/27 01:10:58;;;;;;;13.68;10.95;;;;;;;11.69;86.21;94524.73;1742880;80;21474;-65
2021/05/27 01:13:25;;;;;;;20.12;11.97;;;;;;;11.66;86.19;94522.91;1765209;80;20908;-65
2021/05/27 01:15:52;;;;;;;12.58;10.28;;;;;;;11.64;86.57;94521.22;1759190;80;21172;-64
2021/05/27 01:18:21;;;;;;;10.82;8.18;;;;;;;11.65;86.45;94516.45;1779402;80;20909;-65
2021/05/27 01:20:53;;;;;;;9.45;7.67;;;;;;;11.66;86.40;94513.26;1769961;80;21495;-65
2021/05/27 01:23:21;;;;;;;14.00;8.73;;;;;;;11.67;86.33;94517.54;1764736;80;21071;-64
2021/05/27 01:25:54;;;;;;;13.80;8.68;;;;;;;11.68;85.87;94528.72;1769425;80;22368;-63
2021/05/27 01:28:22;;;;;;;12.37;8.85;;;;;;;11.66;85.73;94516.02;1751371;80;21605;-65
2021/05/27 01:30:49;;;;;;;32.28;10.35;;;;;;;11.60;85.74;94515.70;1778066;80;21005;-64
2021/05/27 01:33:30;;;;;;;21.00;10.68;;;;;;;11.55;85.89;94517.04;1776047;80;20920;-66
2021/05/27 01:35:57;;;;;;;18.30;12.05;;;;;;;11.49;85.98;94521.64;1754056;80;21146;-64
2021/05/27 01:38:28;;;;;;;17.75;13.50;;;;;;;11.43;86.36;94519.34;1763755;80;20869;-65
2021/05/27 01:40:56;;;;;;;18.50;11.08;;;;;;;11.43;87.12;94511.67;1770325;80;21012;-65
2021/05/27 01:43:24;;;;;;;17.95;12.23;;;;;;;11.49;87.19;94505.11;1764395;80;21108;-64
2021/05/27 01:45:53;;;;;;;15.25;11.00;;;;;;;11.50;86.88;94508.02;1772849;80;21526;-65
2021/05/27 01:48:20;;;;;;;15.03;10.45;;;;;;;11.47;86.87;94504.80;1760425;80;21515;-64
2021/05/27 01:50:48;;;;;;;13.20;9.95;;;;;;;11.49;86.94;94506.48;1758245;80;21011;-64
2021/05/27 01:53:18;;;;;;;20.37;12.43;;;;;;;11.54;87.11;94510.63;1779772;80;21507;-64
2021/05/27 01:55:47;;;;;;;10.05;8.83;;;;;;;11.54;86.87;94503.73;1746454;80;21421;-66
2021/05/27 01:58:15;;;;;;;10.15;8.40;;;;;;;11.55;86.84;94512.16;1761955;80;21000;-64
2021/05/27 02:00:44;;;;;;;13.00;9.13;;;;;;;11.52;86.44;94514.45;1779342;80;21677;-65
2021/05/27 02:03:11;;;;;;;14.40;9.58;;;;;;;11.45;86.67;94507.25;1752231;80;21074;-64
2021/05/27 02:05:39;;;;;;;14.28;9.65;;;;;;;11.46;86.82;94515.67;1766961;80;21095;-64
2021/05/27 02:08:09;;;;;;;16.67;8.90;;;;;;;11.47;86.74;94513.06;1764180;80;20978;-66
2021/05/27 02:10:46;;;;;;;14.38;9.75;;;;;;;11.50;86.59;94510.02;1757902;80;21097;-66
2021/05/27 02:13:13;;;;;;;18.15;10.58;;;;;;;11.51;86.54;94507.41;1757066;80;21668;-65
2021/05/27 02:15:41;;;;;;;14.95;10.20;;;;;;;11.53;86.41;94507.09;1747733;80;21059;-62
2021/05/27 02:18:09;;;;;;;19.10;10.85;;;;;;;11.51;86.32;94513.67;1755304;80;21039;-61
2021/05/27 02:20:38;;;;;;;16.30;9.93;;;;;;;11.48;86.40;94510.47;1765608;80;20976;-62
2021/05/27 02:23:05;;;;;;;16.67;10.95;;;;;;;11.48;86.26;94508.30;1754477;80;20968;-65
2021/05/27 02:25:40;;;;;;;17.75;9.58;;;;;;;11.48;86.27;94510.47;1747791;80;21097;-64
2021/05/27 02:28:09;;;;;;;16.00;10.05;;;;;;;11.51;86.34;94512.30;1775685;80;21003;-65
2021/05/27 02:30:37;;;;;;;12.80;9.70;;;;;;;11.50;86.16;94510.77;1756151;80;21036;-67
2021/05/27 02:33:06;;;;;;;17.02;8.70;;;;;;;11.49;86.01;94514.00;1758538;80;20951;-66
2021/05/27 02:35:35;;;;;;;15.13;9.68;;;;;;;11.44;86.15;94507.10;1772990;80;21011;-66
2021/05/27 02:38:03;;;;;;;12.47;9.35;;;;;;;11.47;86.41;94506.78;1762381;80;21077;-66
2021/05/27 02:40:30;;;;;;;10.63;8.48;;;;;;;11.50;86.55;94495.61;1759059;80;21011;-65
2021/05/27 02:42:57;;;;;;;34.18;10.50;;;;;;;11.53;86.70;94506.34;1755074;80;20984;-64
2021/05/27 02:45:24;;;;;;;12.30;8.50;;;;;;;11.54;86.59;94503.73;1774895;80;21047;-64
2021/05/27 02:47:51;;;;;;;8.53;7.03;;;;;;;11.55;86.13;94514.28;1758609;80;21583;-64
2021/05/27 02:50:18;;;;;;;14.58;7.87;;;;;;;11.47;85.94;94513.06;1761316;80;21084;-65
2021/05/27 02:52:46;;;;;;;14.28;7.47;;;;;;;11.40;86.15;94518.89;1755135;80;20997;-68
2021/05/27 02:55:15;;;;;;;13.13;7.25;;;;;;;11.36;86.32;94519.63;1777025;80;21110;-67
2021/05/27 02:57:41;;;;;;;9.68;6.85;;;;;;;11.37;86.28;94514.27;1759212;80;21599;-67
2021/05/27 03:00:12;;;;;;;12.45;6.65;;;;;;;11.39;85.99;94516.58;1768648;80;20999;-59
2021/05/27 03:02:55;;;;;;;11.22;7.42;;;;;;;11.42;85.89;94517.81;1753721;80;21133;-64
2021/05/27 03:05:22;;;;;;;9.40;7.17;;;;;;;11.43;85.62;94511.08;1754586;80;21543;-61
2021/05/27 03:07:49;;;;;;;10.68;6.80;;;;;;;11.43;85.49;94516.59;1762772;80;20968;-61
2021/05/27 03:10:17;;;;;;;17.55;6.92;;;;;;;11.40;85.29;94513.37;1771976;80;20992;-62
2021/05/27 03:12:45;;;;;;;9.53;6.20;;;;;;;11.37;85.24;94514.27;1766646;80;20972;-62
2021/05/27 03:15:13;;;;;;;9.08;6.95;;;;;;;11.38;85.24;94508.91;1771682;80;21069;-62
2021/05/27 03:17:40;;;;;;;9.88;6.53;;;;;;;11.42;85.17;94514.28;1767831;80;21130;-62
2021/05/27 03:20:09;;;;;;;7.62;6.92;;;;;;;11.43;85.19;94512.46;1775837;80;20885;-62
2021/05/27 03:22:38;;;;;;;22.50;7.30;;;;;;;11.44;85.11;94509.86;1764332;80;21005;-62
2021/05/27 03:25:07;;;;;;;11.63;6.33;;;;;;;11.47;85.14;94514.44;1772022;80;21554;-61
2021/05/27 03:27:34;;;;;;;11.60;5.90;;;;;;;11.57;84.96;94511.11;1749443;80;21051;-62
2021/05/27 03:30:04;;;;;;;7.58;6.15;;;;;;;11.63;84.58;94507.89;1755377;80;21462;-60
2021/05/27 03:32:32;;;;;;;15.35;6.95;;;;;;;11.64;84.45;94507.44;1754970;80;21044;-62
2021/05/27 03:34:59;;;;;;;8.28;6.20;;;;;;;11.62;84.25;94497.49;1751232;80;21118;-61
2021/05/27 03:37:29;;;;;;;9.60;6.72;;;;;;;11.63;84.06;94496.27;1755531;80;20980;-61
2021/05/27 03:40:14;;;;;;;16.73;6.97;;;;;;;11.66;83.85;94488.45;1765777;80;21127;-63
2021/05/27 03:42:48;;;;;;;17.30;7.62;;;;;;;11.65;83.80;94490.28;1777495;80;21022;-61
2021/05/27 03:45:25;;;;;;;21.33;7.85;;;;;;;11.62;84.00;94489.23;1759350;80;21000;-61
2021/05/27 03:47:57;;;;;;;6.35;5.53;;;;;;;11.64;84.23;94492.29;1754203;80;21016;-61
2021/05/27 03:50:27;;;;;;;16.48;7.08;;;;;;;11.70;84.14;94489.06;1740897;80;21602;-62
2021/05/27 03:52:55;;;;;;;16.10;7.47;;;;;;;11.76;84.04;94488.62;1774196;80;21937;-62
2021/05/27 03:55:23;;;;;;;13.90;5.97;;;;;;;11.80;83.89;94493.35;1752051;80;21081;-62
2021/05/27 03:57:51;;;;;;;9.15;6.33;;;;;;;11.82;83.71;94488.74;1747705;80;20989;-61
2021/05/27 04:03:08;;;;;;;12.93;6.15;;;;;;;11.86;83.01;94486.62;1775677;80;21456;-63
2021/05/27 04:08:23;;;;;;;8.98;5.53;;;;;;;11.85;82.59;94489.97;1779364;80;20960;-62
2021/05/27 04:10:50;;;;;;;6.90;5.70;;;;;;;11.87;82.57;94495.79;1772071;80;21475;-63
2021/05/27 04:13:17;;;;;;;9.55;5.97;;;;;;;11.88;82.50;94495.94;1769397;80;21182;-63
2021/05/27 04:15:44;;;;;;;8.10;5.45;;;;;;;11.92;82.43;94491.66;1769122;80;21064;-62
2021/05/27 04:18:17;;;;;;;7.58;6.25;;;;;;;11.94;82.43;94494.08;1762663;80;22237;-61
2021/05/27 04:20:54;;;;;;;;;;;;;;;11.97;82.37;94490.42;1768455;80;21016;-61
2021/05/27 04:23:36;;;;;;;11.33;5.80;;;;;;;12.02;82.39;94503.59;1775803;80;20538;-61
2021/05/27 04:26:07;;;;;;;13.38;6.42;;;;;;;12.08;82.35;94504.48;1760228;80;21583;-62
2021/05/27 04:28:33;;;;;;;7.08;6.20;;;;;;;12.11;82.20;94502.80;1762468;80;21040;-61
2021/05/27 04:31:09;;;;;;;13.83;5.58;;;;;;;12.13;82.15;94506.64;1753550;80;21077;-62
2021/05/27 04:33:47;;;;;;;7.72;5.45;;;;;;;12.14;82.22;94519.20;1756270;80;21080;-62
2021/05/27 04:36:16;;;;;;;7.95;5.67;;;;;;;12.14;82.42;94510.15;1756295;80;21028;-63
2021/05/27 04:38:43;;;;;;;10.98;6.28;;;;;;;12.15;82.53;94508.92;1763267;80;21051;-62
2021/05/27 04:41:10;;;;;;;36.15;7.40;;;;;;;12.20;82.75;94517.34;1764352;80;20992;-60
2021/05/27 04:43:40;;;;;;;11.48;5.87;;;;;;;12.30;82.99;94516.08;1747316;80;21075;-61
2021/05/27 04:46:08;;;;;;;6.60;5.55;;;;;;;12.46;82.92;94514.98;1757729;79;20991;-60
2021/05/27 04:48:36;;;;;;;9.53;6.20;;;;;;;12.63;82.80;94514.92;1762745;80;21071;-61
2021/05/27 04:51:04;;;;;;;7.85;5.83;;;;;;;12.78;82.67;94512.25;1768265;80;21585;-61
2021/05/27 04:53:32;;;;;;;7.17;4.72;;;;;;;12.93;82.43;94509.00;1768364;80;21021;-62
2021/05/27 04:56:00;;;;;;;6.30;5.17;;;;;;;13.02;81.76;94513.09;1764538;80;21046;-63
2021/05/27 04:58:29;;;;;;;9.60;4.72;;;;;;;13.03;80.96;94521.52;1754851;80;21134;-62
2021/05/27 05:00:57;;;;;;;15.05;5.90;;;;;;;13.00;80.31;94529.36;1753818;80;21072;-61
2021/05/27 05:03:24;;;;;;;26.45;6.90;;;;;;;13.00;80.52;94525.99;1762352;80;21052;-62
2021/05/27 05:05:51;;;;;;;8.80;6.33;;;;;;;13.05;80.65;94525.98;1761083;80;20981;-62
2021/05/27 05:08:17;;;;;;;9.45;6.00;;;;;;;13.09;80.58;94527.95;1757808;80;21090;-63
2021/05/27 05:10:44;;;;;;;7.97;5.67;;;;;;;13.16;80.57;94533.12;1756764;80;21103;-62
2021/05/27 05:13:11;;;;;;;14.70;5.70;;;;;;;13.25;80.44;94528.94;1771088;80;21024;-63
2021/05/27 05:15:40;;;;;;;11.22;5.83;;;;;;;13.39;80.22;94521.31;1760235;80;21503;-61
2021/05/27 05:18:13;;;;;;;7.15;5.05;;;;;;;13.53;79.79;94520.61;1772247;80;21047;-62
2021/05/27 05:20:44;;;;;;;18.40;5.50;;;;;;;13.65;78.90;94524.51;1702908;83;21280;-63
2021/05/27 05:23:12;;;;;;;;;;;;;;;13.77;78.75;94528.26;1775215;80;21610;-62
2021/05/27 05:25:40;;;;;;;7.53;5.10;;;;;;;13.86;78.17;94517.14;1759612;80;20249;-60
2021/05/27 05:28:07;;;;;;;7.28;4.78;;;;;;;13.93;77.98;94519.53;1773094;80;20995;-62
2021/05/27 05:30:34;;;;;;;9.75;5.12;;;;;;;14.01;77.49;94522.09;1758481;80;20996;-60
2021/05/27 05:33:01;;;;;;;12.18;4.65;;;;;;;14.09;77.22;94516.31;1770070;80;21562;-62
2021/05/27 05:35:29;;;;;;;9.65;6.78;;;;;;;14.18;76.98;94510.11;1755462;80;21052;-60
2021/05/27 05:37:56;;;;;;;11.22;5.30;;;;;;;14.23;76.59;94519.16;1755878;80;21108;-60
2021/05/27 05:40:26;;;;;;;8.35;4.78;;;;;;;14.25;76.32;94515.89;1762170;80;21023;-62
2021/05/27 05:42:53;;;;;;;6.60;4.40;;;;;;;14.23;75.72;94516.39;1754916;80;21068;-63
2021/05/27 05:45:20;;;;;;;8.93;4.42;;;;;;;14.24;75.57;94509.61;1763775;80;21150;-62
2021/05/27 05:47:49;;;;;;;7.78;4.80;;;;;;;14.29;75.42;94505.39;1745537;80;21617;-66
2021/05/27 05:53:05;;;;;;;4.40;4.00;;;;;;;14.43;75.36;94504.64;1754833;80;21143;-62
2021/05/27 05:55:32;;;;;;;7.20;5.20;;;;;;;14.50;75.23;94507.19;1747332;80;21102;-66
2021/05/27 05:57:59;;;;;;;10.38;5.33;;;;;;;14.52;74.79;94501.94;1750601;79;21154;-61
2021/05/27 06:00:26;;;;;;;16.67;6.60;;;;;;;14.58;74.98;94502.78;1764306;80;21096;-67
2021/05/27 06:02:53;;;;;;;8.18;4.45;;;;;;;14.68;75.24;94504.22;1735421;80;21276;-61
2021/05/27 06:05:21;;;;;;;6.28;4.87;;;;;;;14.78;74.89;94503.48;1720386;80;21159;-63
2021/05/27 06:07:55;;;;;;;9.48;5.30;;;;;;;14.86;74.53;94504.00;1754964;80;21162;-61
2021/05/27 06:10:24;;;;;;;14.87;5.08;;;;;;;14.96;74.39;94498.47;1724479;79;22242;-65
2021/05/27 06:12:52;;;;;;;10.58;4.92;;;;;;;15.06;74.07;94498.52;1724217;80;21146;-64
2021/05/27 06:15:22;;;;;;;10.63;4.67;;;;;;;15.22;73.68;94496.58;1764301;80;21107;-62
2021/05/27 06:17:49;;;;;;;13.50;5.53;;;;;;;15.34;73.11;94493.39;1745134;79;21588;-62
2021/05/27 06:20:17;;;;;;;7.37;5.92;;;;;;;15.39;72.80;94489.28;1749889;80;21206;-59
2021/05/27 06:22:45;;;;;;;8.83;4.50;;;;;;;15.44;72.43;94484.46;1738889;80;21763;-60
2021/05/27 06:25:12;;;;;;;16.45;5.22;;;;;;;15.47;72.41;94478.55;1734022;79;21035;-64
2021/05/27 06:27:40;;;;;;;6.72;4.65;;;;;;;15.56;72.32;94481.95;1680112;82;21092;-66
2021/05/27 06:30:08;;;;;;;7.17;4.87;;;;;;;15.70;72.27;94480.38;1696891;83;21021;-62
2021/05/27 06:32:37;;;;;;;11.90;4.30;;;;;;;15.83;72.13;94483.53;1695849;83;21614;-57
2021/05/27 06:35:05;;;;;;;9.63;4.87;;;;;;;15.94;71.72;94481.64;1683545;83;21239;-65
2021/05/27 06:37:34;;;;;;;10.05;4.40;;;;;;;16.02;71.06;94475.82;1687287;83;21044;-63
2021/05/27 06:40:01;;;;;;;7.95;4.72;;;;;;;16.11;70.84;94470.09;1686658;83;21100;-64
2021/05/27 06:42:28;;;;;;;13.45;4.92;;;;;;;16.21;70.39;94463.15;1686063;83;21095;-65
2021/05/27 06:44:55;;;;;;;8.55;4.80;;;;;;;16.32;70.35;94458.47;1691984;83;21091;-64
2021/05/27 06:47:22;;;;;;;5.15;4.08;;;;;;;16.44;69.71;94449.63;1673201;83;21096;-63
2021/05/27 06:49:49;;;;;;;6.60;3.62;;;;;;;16.55;68.81;94449.73;1692373;83;21114;-67
2021/05/27 06:52:16;;;;;;;25.72;17.57;;;;;;;16.63;68.53;94445.25;1678563;83;21097;-60
2021/05/27 06:54:42;;;;;;;11.63;5.83;;;;;;;16.73;68.15;94446.60;1685365;83;21081;-59
2021/05/27 06:57:09;;;;;;;9.35;4.87;;;;;;;16.84;67.78;94441.89;1675806;83;21541;-70
2021/05/27 06:59:36;;;;;;;9.33;4.33;;;;;;;16.95;67.67;94439.16;1673140;83;21821;-61
2021/05/27 07:02:03;;;;;;;11.68;4.65;;;;;;;17.09;67.45;94434.08;1671021;83;21163;-62
2021/05/27 07:04:29;;;;;;;7.15;4.70;;;;;;;17.24;67.25;94433.29;1677258;83;21227;-57
2021/05/27 07:06:56;;;;;;;6.70;3.95;;;;;;;17.37;67.03;94431.48;1740410;79;21112;-60
2021/05/27 07:09:23;;;;;;;5.65;4.35;;;;;;;17.52;66.69;94428.66;1721881;81;21235;-57
2021/05/27 07:11:52;;;;;;;16.25;4.87;;;;;;;17.63;65.92;94426.56;1749002;80;21088;-60
2021/05/27 07:14:19;;;;;;;11.68;4.28;;;;;;;17.73;65.96;94430.02;1744220;80;21008;-57
2021/05/27 07:16:47;;;;;;;17.37;4.83;;;;;;;17.87;65.56;94424.88;1743384;80;21633;-56
2021/05/27 07:19:14;;;;;;;17.65;4.95;;;;;;;18.05;65.19;94426.42;1741232;80;21575;-59
2021/05/27 07:21:41;;;;;;;7.40;4.00;;;;;;;18.20;64.48;94424.94;1745272;79;21114;-56
2021/05/27 07:24:08;;;;;;;7.65;4.60;;;;;;;18.35;63.79;94424.10;1751079;80;22072;-69
2021/05/27 07:26:34;;;;;;;3.95;3.55;;;;;;;18.47;62.59;94427.03;1747927;80;21047;-65
2021/05/27 07:29:02;;;;;;;7.08;4.15;;;;;;;18.59;61.86;94422.35;1745437;80;21178;-67
2021/05/27 07:31:31;;;;;;;10.45;3.50;;;;;;;18.71;61.03;94421.71;1756110;80;21152;-59
2021/05/27 07:33:57;;;;;;;7.10;3.47;;;;;;;18.85;60.98;94419.30;1762281;79;21297;-59
2021/05/27 07:36:24;;;;;;;5.72;4.53;;;;;;;19.00;59.36;94417.75;1751541;80;21078;-61
2021/05/27 07:38:52;;;;;;;6.40;4.37;;;;;;;19.16;59.31;94412.81;1760252;80;21115;-59
2021/05/27 07:41:18;;;;;;;5.33;3.50;;;;;;;19.32;59.46;94407.84;1742842;80;21570;-61
2021/05/27 07:43:47;;;;;;;4.05;2.27;;;;;;;19.50;58.06;94408.67;1758337;80;21661;-64
2021/05/27 07:46:15;;;;;;;4.83;2.85;;;;;;;19.68;55.34;94414.30;1749176;80;21101;-61
2021/05/27 07:48:43;;;;;;;7.00;2.98;;;;;;;19.83;53.00;94413.34;1756571;80;21109;-61
2021/05/27 07:51:09;;;;;;;8.63;4.47;;;;;;;19.98;52.58;94415.19;1743648;79;21111;-60
2021/05/27 07:53:36;;;;;;;6.60;2.65;;;;;;;20.12;52.17;94406.48;1762146;80;21108;-57
2021/05/27 07:56:05;;;;;;;3.17;2.10;;;;;;;20.30;50.75;94404.47;1733958;80;21143;-59
2021/05/27 07:58:32;;;;;;;9.05;3.60;;;;;;;20.45;50.33;94397.27;1730537;80;21067;-60
2021/05/27 08:00:59;;;;;;;7.50;2.67;;;;;;;20.67;49.69;94406.87;1730026;80;21081;-59
2021/05/27 08:03:26;;;;;;;9.53;2.67;;;;;;;20.89;48.83;94400.38;1749806;79;21601;-58
2021/05/27 08:05:53;;;;;;;9.13;2.52;;;;;;;21.09;47.95;94406.92;1749742;80;22054;-70
2021/05/27 08:08:19;;;;;;;14.65;4.87;;;;;;;21.23;47.50;94400.16;1743338;80;21075;-59
2021/05/27 08:10:46;;;;;;;5.95;3.17;;;;;;;21.30;46.81;94403.12;1771431;79;21036;-59
2021/05/27 08:13:15;;;;;;;7.15;2.55;;;;;;;21.31;46.47;94401.10;1739382;79;21790;-58
2021/05/27 08:15:42;;;;;;;5.42;2.47;;;;;;;21.34;46.56;94394.45;1715465;80;22275;-58
2021/05/27 08:18:09;;;;;;;11.90;3.08;;;;;;;21.39;46.07;94395.02;1754375;80;21057;-57
2021/05/27 08:20:37;;;;;;;9.33;2.35;;;;;;;21.39;45.66;94399.22;1736793;80;21471;-59
2021/05/27 08:23:04;;;;;;;3.27;1.72;;;;;;;21.39;44.80;94398.59;1681102;83;21252;-58
2021/05/27 08:25:30;;;;;;;3.67;2.00;;;;;;;21.39;44.87;94397.83;1750336;80;21854;-57
2021/05/27 08:27:57;;;;;;;9.18;2.92;;;;;;;21.38;44.95;94400.51;1751813;79;21316;-58
2021/05/27 08:30:26;;;;;;;5.10;2.15;;;;;;;21.38;45.25;94401.28;1755633;80;21099;-59
2021/05/27 08:32:53;;;;;;;2.65;1.92;;;;;;;21.43;44.89;94399.68;1751244;80;21000;-61
2021/05/27 08:35:20;;;;;;;2.47;1.80;;;;;;;21.49;44.50;94394.14;1759295;80;21176;-57
2021/05/27 08:37:47;;;;;;;12.78;2.55;;;;;;;21.69;44.66;94393.68;1750380;79;21675;-57
2021/05/27 08:40:15;;;;;;;6.75;3.80;;;;;;;21.97;43.79;94390.53;1739399;80;21095;-61
2021/05/27 08:42:42;;;;;;;6.53;2.27;;;;;;;22.23;43.31;94383.80;1752632;80;21578;-59
2021/05/27 08:45:10;;;;;;;4.67;2.02;;;;;;;22.56;42.79;94388.95;1697571;83;21073;-62
2021/05/27 08:47:38;;;;;;;9.75;1.98;;;;;;;22.88;42.28;94391.74;1688565;83;21131;-57
2021/05/27 08:50:06;;;;;;;7.97;2.65;;;;;;;23.03;41.85;94392.74;1674461;84;21115;-58
2021/05/27 08:52:33;;;;;;;5.70;2.40;;;;;;;23.07;41.50;94392.44;1687764;83;21629;-64
2021/05/27 08:55:01;;;;;;;2.22;1.95;;;;;;;23.07;41.32;94396.02;1677107;84;21786;-58
2021/05/27 08:57:28;;;;;;;6.87;2.20;;;;;;;23.06;42.02;94391.66;1672039;83;21117;-60
2021/05/27 08:59:54;;;;;;;3.37;2.10;;;;;;;23.21;41.28;94396.81;1683526;83;21016;-58
2021/05/27 09:02:21;;;;;;;31.97;26.45;;;;;;;23.36;40.73;94391.44;1664794;84;21125;-59
2021/05/27 09:04:48;;;;;;;10.75;4.65;;;;;;;23.46;41.16;94380.64;1712967;81;22383;-57
2021/05/27 09:07:16;;;;;;;5.60;3.00;;;;;;;23.59;41.91;94383.44;1686560;82;21090;-56
2021/05/27 09:09:53;;;;;;;3.67;3.08;;;;;;;23.60;41.57;94387.75;1670572;83;21684;-56
2021/05/27 09:12:25;;;;;;;11.35;3.60;;;;;;;23.54;42.19;94387.78;1677937;83;21102;-59
2021/05/27 09:14:51;;;;;;;10.28;5.30;;;;;;;23.37;42.75;94376.84;1687153;83;21416;-56
2021/05/27 09:17:20;;;;;;;3.60;2.95;;;;;;;23.34;44.85;94379.33;1667904;83;21656;-58
2021/05/27 09:20:16;;;;;;;4.50;2.70;;;;;;;23.36;45.89;94386.56;1672452;83;21150;-58
2021/05/27 09:22:44;;;;;;;6.53;2.60;;;;;;;23.24;46.31;94383.10;1672625;83;21089;-60
2021/05/27 09:25:27;;;;;;;4.65;2.77;;;;;;;22.97;46.89;94369.64;1661593;83;21793;-60
2021/05/27 09:27:54;;;;;;;6.33;3.37;;;;;;;22.82;46.68;94370.78;1681089;83;21128;-61
2021/05/27 09:30:23;;;;;;;7.47;3.00;;;;;;;22.75;47.60;94377.03;1680313;83;21108;-58
2021/05/27 09:32:51;;;;;;;7.92;2.90;;;;;;;22.76;48.15;94372.94;1682381;83;21760;-58
2021/05/27 09:35:18;;;;;;;3.52;2.20;;;;;;;22.88;49.07;94378.45;1708230;83;21151;-58
2021/05/27 09:37:53;;;;;;;7.53;2.77;;;;;;;23.06;48.41;94367.81;1718310;82;21178;-62
2021/05/27 09:40:38;;;;;;;5.75;3.10;;;;;;;23.20;47.85;94372.19;1749522;80;21170;-58
2021/05/27 09:43:08;;;;;;;6.65;2.70;;;;;;;23.22;48.89;94375.87;1748071;80;21621;-58
2021/05/27 09:45:36;;;;;;;9.70;4.17;;;;;;;23.27;48.79;94367.35;1724642;82;21737;-57
2021/05/27 09:48:24;;;;;;;5.75;4.78;;;;;;;23.35;49.81;94362.59;1711017;82;21567;-58
2021/05/27 09:51:00;;;;;;;3.95;3.22;;;;;;;23.39;48.41;94372.84;1682005;83;21107;-57
2021/05/27 09:53:25;;;;;;;6.85;3.08;;;;;;;23.34;48.41;94368.10;1692262;83;21695;-57
2021/05/27 09:55:54;;;;;;;5.60;2.87;;;;;;;23.29;47.57;94369.60;1695473;83;21045;-57
2021/05/27 09:58:22;;;;;;;7.25;3.00;;;;;;;23.27;48.44;94367.35;1704417;83;21112;-57
2021/05/27 10:00:48;;;;;;;7.60;3.47;;;;;;;23.25;48.50;94369.17;1686168;83;21145;-57
2021/05/27 10:03:34;;;;;;;7.92;2.72;;;;;;;23.18;48.33;94367.76;1700325;82;21143;-60
2021/05/27 10:06:12;;;;;;;5.65;2.80;;;;;;;23.09;48.35;94361.15;1700598;81;21639;-61
2021/05/27 10:08:54;;;;;;;5.53;2.50;;;;;;;23.06;48.76;94365.00;1711475;82;21124;-60
2021/05/27 10:11:23;;;;;;;11.28;3.17;;;;;;;23.00;47.76;94365.75;1719901;81;21193;-64
2021/05/27 10:13:52;;;;;;;8.40;3.25;;;;;;;22.85;47.85;94364.77;1720322;82;21119;-60
2021/05/27 10:16:22;;;;;;;5.33;2.92;;;;;;;22.73;48.39;94365.59;1709515;82;22323;-62
2021/05/27 10:18:49;;;;;;;4.85;3.00;;;;;;;22.65;48.05;94363.95;1705893;82;21077;-61
2021/05/27 10:21:16;;;;;;;5.78;2.85;;;;;;;22.53;49.00;94361.97;1700883;83;21118;-61
2021/05/27 10:23:43;;;;;;;4.80;3.05;;;;;;;22.41;48.85;94370.44;1707495;82;21212;-60
2021/05/27 10:26:10;;;;;;;10.38;3.30;;;;;;;22.27;48.50;94360.42;1725169;82;21084;-62
2021/05/27 10:28:40;;;;;;;7.08;3.60;;;;;;;22.10;49.18;94365.50;1741249;82;21087;-64
2021/05/27 10:31:06;;;;;;;3.02;2.70;;;;;;;21.98;49.34;94368.25;1704840;83;21447;-59
2021/05/27 10:33:38;;;;;;;10.72;3.30;;;;;;;21.85;49.47;94372.37;1732024;82;21092;-61
2021/05/27 10:36:07;;;;;;;8.40;2.92;;;;;;;21.67;49.75;94373.84;1732407;82;21183;-61
2021/05/27 10:38:47;;;;;;;14.03;3.40;;;;;;;21.58;50.22;94372.03;1740166;81;21063;-60
2021/05/27 10:41:18;;;;;;;5.00;2.62;;;;;;;21.53;50.60;94384.05;1705399;83;21084;-60
2021/05/27 10:44:07;;;;;;;8.95;2.60;;;;;;;21.46;50.96;94379.06;1715714;82;21677;-60
2021/05/27 10:46:46;;;;;;;8.15;2.95;;;;;;;21.37;51.32;94378.00;1713715;82;21150;-59
2021/05/27 10:49:29;;;;;;;15.65;4.37;;;;;;;21.30;51.56;94377.20;1729059;80;21725;-60
2021/05/27 10:51:56;;;;;;;6.92;3.15;;;;;;;21.24;51.30;94373.05;1729794;80;21086;-62
2021/05/27 10:54:29;;;;;;;6.03;2.50;;;;;;;21.22;51.88;94378.42;1667745;80;21680;-58
2021/05/27 10:56:56;;;;;;;4.33;2.80;;;;;;;21.29;52.01;94377.09;1753939;80;21134;-57
2021/05/27 10:59:34;;;;;;;9.18;3.00;;;;;;;21.38;52.25;94378.12;1752552;80;21041;-61
2021/05/27 11:02:03;;;;;;;9.45;3.80;;;;;;;21.59;52.31;94367.94;1759855;80;21091;-57
2021/05/27 11:04:35;;;;;;;7.03;3.42;;;;;;;21.78;52.04;94372.32;1760714;80;21059;-61
2021/05/27 11:07:19;;;;;;;4.25;3.00;;;;;;;22.04;52.21;94376.05;1758170;79;21187;-63
2021/05/27 11:09:50;;;;;;;5.62;2.22;;;;;;;22.34;51.47;94371.66;1756048;80;21099;-63
2021/05/27 11:12:28;;;;;;;3.00;2.40;;;;;;;22.86;49.90;94377.50;1759661;80;21266;-60
2021/05/27 11:15:08;;;;;;;8.18;2.45;;;;;;;23.23;48.74;94366.89;1755155;80;21385;-58
2021/05/27 11:17:34;;;;;;;3.62;2.35;;;;;;;23.55;48.37;94373.84;1749698;79;21202;-62
2021/05/27 11:20:12;;;;;;;7.60;2.55;;;;;;;23.74;47.27;94372.41;1760144;80;21064;-62
2021/05/27 11:22:53;;;;;;;14.20;2.62;;;;;;;23.81;46.84;94371.77;1772130;80;21156;-58
2021/05/27 11:25:25;;;;;;;8.75;2.67;;;;;;;23.77;46.52;94367.11;1761965;80;21599;-62
2021/05/27 11:28:04;;;;;;;8.55;3.58;;;;;;;23.69;47.04;94360.65;1755411;79;21045;-58
2021/05/27 11:30:40;;;;;;;6.90;3.02;;;;;;;23.77;47.31;94351.66;1747578;79;21034;-59
2021/05/27 11:33:21;;;;;;;4.45;2.35;;;;;;;24.09;46.67;94362.13;1773694;79;21107;-63
2021/05/27 11:35:52;;;;;;;14.07;2.70;;;;;;;24.19;46.26;94351.94;1724238;80;21175;-61
2021/05/27 11:38:28;;;;;;;4.78;2.60;;;;;;;24.60;46.56;94351.37;1762703;80;21067;-58
2021/05/27 11:41:14;;;;;;;5.33;2.70;;;;;;;25.14;45.60;94347.06;1745682;80;21098;-64
2021/05/27 11:43:44;;;;;;;4.20;2.58;;;;;;;25.74;44.07;94345.33;1749736;80;21591;-60
2021/05/27 11:46:19;;;;;;;3.98;2.25;;;;;;;26.29;42.93;94349.46;1738662;79;21059;-65
2021/05/27 11:51:32;;;;;;;5.30;2.27;;;;;;;27.39;39.99;94348.72;1764643;80;21197;-62
2021/05/27 11:54:01;;;;;;;5.85;2.55;;;;;;;27.88;39.30;94354.70;1739055;80;21052;-60